Airfield :
LOGIN :

Register | Disclaimer

   EN    FR    IT 

 










Legend :    VFR   Marginal VFR   IFR   Intensive IFR   Very Intensive IFR
Visi :
Ceiling :
>= 8 km
>= 3000ft
5 to 8 km
1000 to 3000 ft
1500m to 5 km
500 to 1000 ft
800 to 1500m
200 to 500 ft
< 800m
< 200 ft
Symbols :   Thunderstorms  Fog  Heavy snow  Heavy precipitations  Wind > 20 kt
SIGMETs :     Misc.  Thunderstorms  Icing  Turbulence  Mountain Waves  Volcanic Ashes







- Airport Elevation : 1411 ft
- IATA code : SZG


LOWS - Salzburg

CURRENT METAR :
  • 251420Z 36006KT 320V060 9999 FEW045 12/01 Q1037 NOSIG

EXPIRED METARs :
  • 251350Z 35006KT 280V080 9999 FEW040 12/01 Q1037 NOSIG
  • 251320Z 33006KT 300V030 9999 FEW040 11/02 Q1037 NOSIG
  • 251250Z 33006KT 280V010 9999 FEW035 SCT045 12/03 Q1037 NOSIG
  • 251220Z 36005KT 320V040 9999 FEW030 SCT040 11/02 Q1037 NOSIG
  • 251150Z 30007KT 260V340 9999 FEW028 SCT040 11/02 Q1037 NOSIG

TAF TAF LOWS
Valid from the 25 at 12:00 until the 26 at 12:00 UTC


251115Z 2512/2612 33005KT 9999 FEW025 SCT040 TX16/2612Z TN02/2604Z
TEMPO 2512/2516 03008KT BKN045
BECMG 2516/2518 15005KT CAVOK
BECMG 2607/2609 34005KT
No reported NOTAMs for that airfield.



MET'MAP, your aeronautical weather chart ! - Copyright ORBIFLY December 2007 - Disclaimer

ORBIFLY MET'MAP TEAM :

Programming & Development : Alexandra Zaïnal
Concept & Development : Baudouin d'Aumeries
Co-Development & Prog : Marc-Olivier Méhu
Technical & hardware support : Manuel Goepfert

Contact : metmap@orbifly.com




SOURCES & CREDITS :

   NOAA